sensor_id;sensor_type;location;lat;lon;timestamp;P1;durP1;ratioP1;P2;durP2;ratioP2
68010;SDS011;54794;48.348;7.878;2023-12-28T00:01:19;0.88;;;0.40;;
68010;SDS011;54794;48.348;7.878;2023-12-28T00:04:15;0.77;;;0.43;;
68010;SDS011;54794;48.348;7.878;2023-12-28T00:07:10;0.88;;;0.50;;
68010;SDS011;54794;48.348;7.878;2023-12-28T00:13:28;0.60;;;0.43;;
68010;SDS011;54794;48.348;7.878;2023-12-28T00:15:58;0.77;;;0.50;;
68010;SDS011;54794;48.348;7.878;2023-12-28T00:18:28;1.52;;;0.50;;
68010;SDS011;54794;48.348;7.878;2023-12-28T00:21:00;0.50;;;0.40;;
68010;SDS011;54794;48.348;7.878;2023-12-28T00:23:30;1.08;;;0.43;;
68010;SDS011;54794;48.348;7.878;2023-12-28T00:26:11;1.40;;;0.65;;
68010;SDS011;54794;48.348;7.878;2023-12-28T00:28:40;1.58;;;0.50;;
68010;SDS011;54794;48.348;7.878;2023-12-28T00:31:26;0.90;;;0.55;;
68010;SDS011;54794;48.348;7.878;2023-12-28T00:33:56;1.08;;;0.55;;
68010;SDS011;54794;48.348;7.878;2023-12-28T00:36:29;0.75;;;0.47;;
68010;SDS011;54794;48.348;7.878;2023-12-28T00:39:02;2.08;;;0.70;;
68010;SDS011;54794;48.348;7.878;2023-12-28T00:41:34;1.15;;;0.57;;
68010;SDS011;54794;48.348;7.878;2023-12-28T00:44:04;0.90;;;0.50;;
68010;SDS011;54794;48.348;7.878;2023-12-28T00:46:35;0.70;;;0.40;;
68010;SDS011;54794;48.348;7.878;2023-12-28T00:49:02;0.90;;;0.43;;
68010;SDS011;54794;48.348;7.878;2023-12-28T00:51:34;0.65;;;0.45;;
68010;SDS011;54794;48.348;7.878;2023-12-28T00:54:04;1.00;;;0.40;;
68010;SDS011;54794;48.348;7.878;2023-12-28T00:56:31;0.60;;;0.40;;
68010;SDS011;54794;48.348;7.878;2023-12-28T00:59:01;0.75;;;0.40;;
68010;SDS011;54794;48.348;7.878;2023-12-28T01:01:35;0.93;;;0.47;;
68010;SDS011;54794;48.348;7.878;2023-12-28T01:04:08;0.80;;;0.50;;
68010;SDS011;54794;48.348;7.878;2023-12-28T01:06:36;2.67;;;0.60;;
68010;SDS011;54794;48.348;7.878;2023-12-28T01:09:05;1.60;;;0.50;;
68010;SDS011;54794;48.348;7.878;2023-12-28T01:11:37;1.50;;;0.40;;
68010;SDS011;54794;48.348;7.878;2023-12-28T01:14:08;0.70;;;0.40;;
68010;SDS011;54794;48.348;7.878;2023-12-28T01:16:36;0.93;;;0.45;;
68010;SDS011;54794;48.348;7.878;2023-12-28T01:19:05;0.90;;;0.40;;
68010;SDS011;54794;48.348;7.878;2023-12-28T01:21:39;1.48;;;0.60;;
68010;SDS011;54794;48.348;7.878;2023-12-28T01:24:06;0.80;;;0.40;;
68010;SDS011;54794;48.348;7.878;2023-12-28T01:26:37;0.90;;;0.50;;
68010;SDS011;54794;48.348;7.878;2023-12-28T01:29:09;1.08;;;0.57;;
68010;SDS011;54794;48.348;7.878;2023-12-28T01:31:37;1.00;;;0.57;;
68010;SDS011;54794;48.348;7.878;2023-12-28T01:34:08;0.75;;;0.40;;
68010;SDS011;54794;48.348;7.878;2023-12-28T01:36:35;1.00;;;0.43;;
68010;SDS011;54794;48.348;7.878;2023-12-28T01:39:02;1.48;;;0.80;;
68010;SDS011;54794;48.348;7.878;2023-12-28T01:41:32;2.50;;;0.70;;
68010;SDS011;54794;48.348;7.878;2023-12-28T01:43:59;1.17;;;0.68;;
68010;SDS011;54794;48.348;7.878;2023-12-28T01:46:30;1.05;;;0.60;;
68010;SDS011;54794;48.348;7.878;2023-12-28T01:49:03;1.75;;;0.70;;
68010;SDS011;54794;48.348;7.878;2023-12-28T01:51:31;0.98;;;0.50;;
68010;SDS011;54794;48.348;7.878;2023-12-28T01:54:00;1.42;;;0.60;;
68010;SDS011;54794;48.348;7.878;2023-12-28T01:56:37;0.77;;;0.40;;
68010;SDS011;54794;48.348;7.878;2023-12-28T01:59:08;0.77;;;0.45;;
68010;SDS011;54794;48.348;7.878;2023-12-28T02:01:35;1.00;;;0.60;;
68010;SDS011;54794;48.348;7.878;2023-12-28T02:04:09;0.82;;;0.47;;
68010;SDS011;54794;48.348;7.878;2023-12-28T02:06:36;0.90;;;0.40;;
68010;SDS011;54794;48.348;7.878;2023-12-28T02:09:13;1.08;;;0.60;;
68010;SDS011;54794;48.348;7.878;2023-12-28T02:11:42;0.93;;;0.60;;
68010;SDS011;54794;48.348;7.878;2023-12-28T02:14:12;0.68;;;0.47;;
68010;SDS011;54794;48.348;7.878;2023-12-28T02:16:46;0.90;;;0.50;;
68010;SDS011;54794;48.348;7.878;2023-12-28T02:19:39;1.65;;;0.52;;
68010;SDS011;54794;48.348;7.878;2023-12-28T02:22:16;1.30;;;0.70;;
68010;SDS011;54794;48.348;7.878;2023-12-28T02:25:04;1.05;;;0.55;;
68010;SDS011;54794;48.348;7.878;2023-12-28T02:27:41;1.00;;;0.50;;
68010;SDS011;54794;48.348;7.878;2023-12-28T02:30:14;1.30;;;0.60;;
68010;SDS011;54794;48.348;7.878;2023-12-28T02:36:04;1.10;;;0.75;;
68010;SDS011;54794;48.348;7.878;2023-12-28T02:38:36;1.10;;;0.57;;
68010;SDS011;54794;48.348;7.878;2023-12-28T02:41:07;0.82;;;0.38;;
68010;SDS011;54794;48.348;7.878;2023-12-28T02:43:38;0.90;;;0.40;;
68010;SDS011;54794;48.348;7.878;2023-12-28T02:46:06;0.93;;;0.57;;
68010;SDS011;54794;48.348;7.878;2023-12-28T02:48:35;0.75;;;0.47;;
68010;SDS011;54794;48.348;7.878;2023-12-28T02:51:04;1.60;;;0.50;;
68010;SDS011;54794;48.348;7.878;2023-12-28T02:53:37;1.10;;;0.60;;
68010;SDS011;54794;48.348;7.878;2023-12-28T02:56:11;2.08;;;0.52;;
68010;SDS011;54794;48.348;7.878;2023-12-28T02:58:38;1.48;;;0.70;;
68010;SDS011;54794;48.348;7.878;2023-12-28T03:01:10;0.60;;;0.40;;
68010;SDS011;54794;48.348;7.878;2023-12-28T03:03:40;1.35;;;0.57;;
68010;SDS011;54794;48.348;7.878;2023-12-28T03:06:07;1.15;;;0.50;;
68010;SDS011;54794;48.348;7.878;2023-12-28T03:08:40;0.75;;;0.40;;
68010;SDS011;54794;48.348;7.878;2023-12-28T03:11:14;0.75;;;0.40;;
68010;SDS011;54794;48.348;7.878;2023-12-28T03:13:47;1.00;;;0.50;;
68010;SDS011;54794;48.348;7.878;2023-12-28T03:16:17;1.20;;;0.43;;
68010;SDS011;54794;48.348;7.878;2023-12-28T03:18:48;0.77;;;0.43;;
68010;SDS011;54794;48.348;7.878;2023-12-28T03:21:19;0.73;;;0.45;;
68010;SDS011;54794;48.348;7.878;2023-12-28T03:23:46;1.20;;;0.43;;
68010;SDS011;54794;48.348;7.878;2023-12-28T03:26:13;1.27;;;0.40;;
68010;SDS011;54794;48.348;7.878;2023-12-28T03:28:43;0.77;;;0.47;;
68010;SDS011;54794;48.348;7.878;2023-12-28T03:31:10;0.70;;;0.45;;
68010;SDS011;54794;48.348;7.878;2023-12-28T03:33:40;0.60;;;0.40;;
68010;SDS011;54794;48.348;7.878;2023-12-28T03:36:09;1.35;;;0.50;;
68010;SDS011;54794;48.348;7.878;2023-12-28T03:38:55;0.32;;;0.22;;
68010;SDS011;54794;48.348;7.878;2023-12-28T03:41:29;0.52;;;0.30;;
68010;SDS011;54794;48.348;7.878;2023-12-28T03:43:59;0.50;;;0.30;;
68010;SDS011;54794;48.348;7.878;2023-12-28T03:46:26;1.00;;;0.50;;
68010;SDS011;54794;48.348;7.878;2023-12-28T03:48:55;0.82;;;0.35;;
68010;SDS011;54794;48.348;7.878;2023-12-28T03:51:25;0.70;;;0.40;;
68010;SDS011;54794;48.348;7.878;2023-12-28T03:53:52;0.88;;;0.40;;
68010;SDS011;54794;48.348;7.878;2023-12-28T03:56:25;1.80;;;0.43;;
68010;SDS011;54794;48.348;7.878;2023-12-28T03:58:58;0.98;;;0.50;;
68010;SDS011;54794;48.348;7.878;2023-12-28T04:01:28;0.80;;;0.43;;
68010;SDS011;54794;48.348;7.878;2023-12-28T04:04:01;0.80;;;0.50;;
68010;SDS011;54794;48.348;7.878;2023-12-28T04:06:31;1.95;;;0.50;;
68010;SDS011;54794;48.348;7.878;2023-12-28T04:09:01;0.75;;;0.50;;
68010;SDS011;54794;48.348;7.878;2023-12-28T04:11:30;0.93;;;0.50;;
68010;SDS011;54794;48.348;7.878;2023-12-28T04:14:02;1.02;;;0.60;;
68010;SDS011;54794;48.348;7.878;2023-12-28T04:16:34;1.08;;;0.40;;
68010;SDS011;54794;48.348;7.878;2023-12-28T04:19:03;0.80;;;0.43;;
68010;SDS011;54794;48.348;7.878;2023-12-28T04:21:45;0.40;;;0.30;;
68010;SDS011;54794;48.348;7.878;2023-12-28T04:24:19;1.23;;;0.40;;
68010;SDS011;54794;48.348;7.878;2023-12-28T04:26:50;0.65;;;0.35;;
68010;SDS011;54794;48.348;7.878;2023-12-28T04:29:19;0.77;;;0.40;;
68010;SDS011;54794;48.348;7.878;2023-12-28T04:31:53;2.55;;;0.40;;
68010;SDS011;54794;48.348;7.878;2023-12-28T04:34:25;0.82;;;0.30;;
68010;SDS011;54794;48.348;7.878;2023-12-28T04:36:52;0.77;;;0.43;;
68010;SDS011;54794;48.348;7.878;2023-12-28T04:39:19;0.88;;;0.43;;
68010;SDS011;54794;48.348;7.878;2023-12-28T04:41:52;1.55;;;0.65;;
68010;SDS011;54794;48.348;7.878;2023-12-28T04:44:21;0.57;;;0.35;;
68010;SDS011;54794;48.348;7.878;2023-12-28T04:46:52;0.55;;;0.30;;
68010;SDS011;54794;48.348;7.878;2023-12-28T04:49:24;1.83;;;0.50;;
68010;SDS011;54794;48.348;7.878;2023-12-28T04:51:59;1.73;;;0.47;;
68010;SDS011;54794;48.348;7.878;2023-12-28T04:54:31;0.50;;;0.30;;
68010;SDS011;54794;48.348;7.878;2023-12-28T04:57:02;0.93;;;0.50;;
68010;SDS011;54794;48.348;7.878;2023-12-28T04:59:31;2.10;;;0.68;;
68010;SDS011;54794;48.348;7.878;2023-12-28T05:02:04;1.25;;;0.50;;
68010;SDS011;54794;48.348;7.878;2023-12-28T05:04:37;0.65;;;0.40;;
68010;SDS011;54794;48.348;7.878;2023-12-28T05:07:20;1.05;;;0.60;;
68010;SDS011;54794;48.348;7.878;2023-12-28T05:09:52;2.13;;;0.60;;
68010;SDS011;54794;48.348;7.878;2023-12-28T05:12:25;1.45;;;0.80;;
68010;SDS011;54794;48.348;7.878;2023-12-28T05:17:47;0.82;;;0.40;;
68010;SDS011;54794;48.348;7.878;2023-12-28T05:20:27;0.68;;;0.35;;
68010;SDS011;54794;48.348;7.878;2023-12-28T05:22:54;1.33;;;0.50;;
68010;SDS011;54794;48.348;7.878;2023-12-28T05:25:24;0.82;;;0.60;;
68010;SDS011;54794;48.348;7.878;2023-12-28T05:27:59;0.43;;;0.28;;
68010;SDS011;54794;48.348;7.878;2023-12-28T05:30:30;1.20;;;0.50;;
68010;SDS011;54794;48.348;7.878;2023-12-28T05:33:00;0.63;;;0.45;;
68010;SDS011;54794;48.348;7.878;2023-12-28T05:35:32;1.10;;;0.40;;
68010;SDS011;54794;48.348;7.878;2023-12-28T05:37:59;1.40;;;0.60;;
68010;SDS011;54794;48.348;7.878;2023-12-28T05:40:29;1.42;;;0.50;;
68010;SDS011;54794;48.348;7.878;2023-12-28T05:43:06;0.65;;;0.30;;
68010;SDS011;54794;48.348;7.878;2023-12-28T05:45:34;1.05;;;0.40;;
68010;SDS011;54794;48.348;7.878;2023-12-28T05:48:05;1.02;;;0.50;;
68010;SDS011;54794;48.348;7.878;2023-12-28T05:50:34;1.25;;;0.50;;
68010;SDS011;54794;48.348;7.878;2023-12-28T05:53:07;0.68;;;0.40;;
68010;SDS011;54794;48.348;7.878;2023-12-28T05:55:48;1.65;;;0.55;;
68010;SDS011;54794;48.348;7.878;2023-12-28T05:58:29;0.88;;;0.32;;
68010;SDS011;54794;48.348;7.878;2023-12-28T06:00:58;0.60;;;0.30;;
68010;SDS011;54794;48.348;7.878;2023-12-28T06:03:27;0.88;;;0.30;;
68010;SDS011;54794;48.348;7.878;2023-12-28T06:06:05;0.63;;;0.40;;
68010;SDS011;54794;48.348;7.878;2023-12-28T06:08:32;1.27;;;0.57;;
68010;SDS011;54794;48.348;7.878;2023-12-28T06:10:59;0.60;;;0.30;;
68010;SDS011;54794;48.348;7.878;2023-12-28T06:13:28;0.85;;;0.50;;
68010;SDS011;54794;48.348;7.878;2023-12-28T06:16:04;0.50;;;0.40;;
68010;SDS011;54794;48.348;7.878;2023-12-28T06:18:31;0.50;;;0.40;;
68010;SDS011;54794;48.348;7.878;2023-12-28T06:21:02;0.70;;;0.43;;
68010;SDS011;54794;48.348;7.878;2023-12-28T06:23:38;0.75;;;0.43;;
68010;SDS011;54794;48.348;7.878;2023-12-28T06:26:05;0.88;;;0.40;;
68010;SDS011;54794;48.348;7.878;2023-12-28T06:28:38;0.70;;;0.40;;
68010;SDS011;54794;48.348;7.878;2023-12-28T06:31:08;0.45;;;0.30;;
68010;SDS011;54794;48.348;7.878;2023-12-28T06:33:38;0.60;;;0.40;;
68010;SDS011;54794;48.348;7.878;2023-12-28T06:36:06;0.57;;;0.35;;
68010;SDS011;54794;48.348;7.878;2023-12-28T06:38:41;0.90;;;0.63;;
68010;SDS011;54794;48.348;7.878;2023-12-28T06:41:13;0.90;;;0.50;;
68010;SDS011;54794;48.348;7.878;2023-12-28T06:44:00;0.98;;;0.40;;
68010;SDS011;54794;48.348;7.878;2023-12-28T06:46:35;1.30;;;0.55;;
68010;SDS011;54794;48.348;7.878;2023-12-28T06:49:02;0.80;;;0.50;;
68010;SDS011;54794;48.348;7.878;2023-12-28T06:51:36;1.40;;;0.47;;
68010;SDS011;54794;48.348;7.878;2023-12-28T06:54:29;1.38;;;0.40;;
68010;SDS011;54794;48.348;7.878;2023-12-28T06:57:03;0.65;;;0.32;;
68010;SDS011;54794;48.348;7.878;2023-12-28T06:59:34;0.70;;;0.50;;
68010;SDS011;54794;48.348;7.878;2023-12-28T07:02:12;0.47;;;0.30;;
68010;SDS011;54794;48.348;7.878;2023-12-28T07:04:51;0.65;;;0.40;;
68010;SDS011;54794;48.348;7.878;2023-12-28T07:07:36;0.57;;;0.40;;
68010;SDS011;54794;48.348;7.878;2023-12-28T07:10:06;1.17;;;0.65;;
68010;SDS011;54794;48.348;7.878;2023-12-28T07:12:50;1.95;;;0.63;;
68010;SDS011;54794;48.348;7.878;2023-12-28T07:15:20;0.80;;;0.50;;
68010;SDS011;54794;48.348;7.878;2023-12-28T07:17:50;0.70;;;0.40;;
68010;SDS011;54794;48.348;7.878;2023-12-28T07:20:20;2.03;;;0.77;;
68010;SDS011;54794;48.348;7.878;2023-12-28T07:22:52;0.50;;;0.32;;
68010;SDS011;54794;48.348;7.878;2023-12-28T07:25:26;0.77;;;0.40;;
68010;SDS011;54794;48.348;7.878;2023-12-28T07:28:02;0.90;;;0.35;;
68010;SDS011;54794;48.348;7.878;2023-12-28T07:30:33;0.47;;;0.30;;
68010;SDS011;54794;48.348;7.878;2023-12-28T07:33:04;0.57;;;0.43;;
68010;SDS011;54794;48.348;7.878;2023-12-28T07:35:39;0.60;;;0.45;;
68010;SDS011;54794;48.348;7.878;2023-12-28T07:38:14;0.82;;;0.40;;
68010;SDS011;54794;48.348;7.878;2023-12-28T07:40:49;1.03;;;0.63;;
68010;SDS011;54794;48.348;7.878;2023-12-28T07:43:16;1.77;;;0.70;;
68010;SDS011;54794;48.348;7.878;2023-12-28T07:45:46;1.10;;;0.57;;
68010;SDS011;54794;48.348;7.878;2023-12-28T07:48:17;0.50;;;0.40;;
68010;SDS011;54794;48.348;7.878;2023-12-28T07:50:44;1.33;;;0.50;;
68010;SDS011;54794;48.348;7.878;2023-12-28T07:53:17;3.17;;;0.50;;
68010;SDS011;54794;48.348;7.878;2023-12-28T07:55:53;0.90;;;0.50;;
68010;SDS011;54794;48.348;7.878;2023-12-28T07:58:33;0.57;;;0.40;;
68010;SDS011;54794;48.348;7.878;2023-12-28T08:01:09;0.85;;;0.47;;
68010;SDS011;54794;48.348;7.878;2023-12-28T08:03:39;1.25;;;0.57;;
68010;SDS011;54794;48.348;7.878;2023-12-28T08:06:11;0.88;;;0.47;;
68010;SDS011;54794;48.348;7.878;2023-12-28T08:08:42;1.35;;;0.57;;
68010;SDS011;54794;48.348;7.878;2023-12-28T08:11:32;2.50;;;0.60;;
68010;SDS011;54794;48.348;7.878;2023-12-28T08:14:01;3.25;;;0.57;;
68010;SDS011;54794;48.348;7.878;2023-12-28T08:16:28;0.77;;;0.60;;
68010;SDS011;54794;48.348;7.878;2023-12-28T08:19:06;1.05;;;0.55;;
68010;SDS011;54794;48.348;7.878;2023-12-28T08:21:35;1.67;;;0.77;;
68010;SDS011;54794;48.348;7.878;2023-12-28T08:24:05;0.88;;;0.45;;
68010;SDS011;54794;48.348;7.878;2023-12-28T08:26:46;0.63;;;0.40;;
68010;SDS011;54794;48.348;7.878;2023-12-28T08:29:27;1.17;;;0.50;;
68010;SDS011;54794;48.348;7.878;2023-12-28T08:32:00;0.60;;;0.40;;
68010;SDS011;54794;48.348;7.878;2023-12-28T08:34:38;1.15;;;0.80;;
68010;SDS011;54794;48.348;7.878;2023-12-28T08:39:39;1.08;;;0.43;;
68010;SDS011;54794;48.348;7.878;2023-12-28T08:42:14;1.08;;;0.50;;
68010;SDS011;54794;48.348;7.878;2023-12-28T08:44:47;0.88;;;0.50;;
68010;SDS011;54794;48.348;7.878;2023-12-28T08:47:21;0.93;;;0.50;;
68010;SDS011;54794;48.348;7.878;2023-12-28T08:50:03;0.55;;;0.38;;
68010;SDS011;54794;48.348;7.878;2023-12-28T08:52:51;1.33;;;0.70;;
68010;SDS011;54794;48.348;7.878;2023-12-28T08:56:11;0.80;;;0.45;;
68010;SDS011;54794;48.348;7.878;2023-12-28T08:59:37;1.63;;;0.50;;
68010;SDS011;54794;48.348;7.878;2023-12-28T09:02:09;0.85;;;0.47;;
68010;SDS011;54794;48.348;7.878;2023-12-28T09:05:29;1.08;;;0.57;;
68010;SDS011;54794;48.348;7.878;2023-12-28T09:08:28;1.00;;;0.50;;
68010;SDS011;54794;48.348;7.878;2023-12-28T09:11:10;1.30;;;0.50;;
68010;SDS011;54794;48.348;7.878;2023-12-28T09:13:44;0.77;;;0.60;;
68010;SDS011;54794;48.348;7.878;2023-12-28T09:16:37;0.80;;;0.45;;
68010;SDS011;54794;48.348;7.878;2023-12-28T09:19:48;1.58;;;0.60;;
68010;SDS011;54794;48.348;7.878;2023-12-28T09:22:46;0.63;;;0.50;;
68010;SDS011;54794;48.348;7.878;2023-12-28T09:25:43;0.70;;;0.40;;
68010;SDS011;54794;48.348;7.878;2023-12-28T09:28:24;0.57;;;0.50;;
68010;SDS011;54794;48.348;7.878;2023-12-28T09:34:40;1.33;;;0.65;;
68010;SDS011;54794;48.348;7.878;2023-12-28T09:50:20;1.70;;;0.80;;
68010;SDS011;54794;48.348;7.878;2023-12-28T09:54:37;1.75;;;0.63;;
68010;SDS011;54794;48.348;7.878;2023-12-28T09:58:26;1.67;;;0.80;;
68010;SDS011;54794;48.348;7.878;2023-12-28T11:54:05;1.00;;;0.60;;
68010;SDS011;54794;48.348;7.878;2023-12-28T12:01:28;1.10;;;0.60;;
68010;SDS011;54794;48.348;7.878;2023-12-28T12:04:02;1.67;;;0.70;;
68010;SDS011;54794;48.348;7.878;2023-12-28T12:14:01;1.95;;;1.00;;
68010;SDS011;54794;48.348;7.878;2023-12-28T12:16:35;1.35;;;0.80;;
68010;SDS011;54794;48.348;7.878;2023-12-28T12:19:06;1.02;;;0.60;;
68010;SDS011;54794;48.348;7.878;2023-12-28T12:21:34;2.25;;;1.02;;
68010;SDS011;54794;48.348;7.878;2023-12-28T12:24:04;1.17;;;0.70;;
68010;SDS011;54794;48.348;7.878;2023-12-28T12:26:35;1.92;;;0.90;;
68010;SDS011;54794;48.348;7.878;2023-12-28T12:29:02;1.27;;;0.75;;
68010;SDS011;54794;48.348;7.878;2023-12-28T12:31:33;1.13;;;0.63;;
68010;SDS011;54794;48.348;7.878;2023-12-28T12:34:10;1.80;;;0.85;;
68010;SDS011;54794;48.348;7.878;2023-12-28T12:36:41;1.48;;;0.80;;
68010;SDS011;54794;48.348;7.878;2023-12-28T12:39:11;2.13;;;0.73;;
68010;SDS011;54794;48.348;7.878;2023-12-28T12:41:39;1.70;;;1.05;;
68010;SDS011;54794;48.348;7.878;2023-12-28T12:44:09;1.80;;;1.02;;
68010;SDS011;54794;48.348;7.878;2023-12-28T12:46:43;4.50;;;0.95;;
68010;SDS011;54794;48.348;7.878;2023-12-28T12:49:21;1.70;;;1.00;;
68010;SDS011;54794;48.348;7.878;2023-12-28T12:51:56;2.22;;;1.30;;
68010;SDS011;54794;48.348;7.878;2023-12-28T12:58:25;1.45;;;0.70;;
68010;SDS011;54794;48.348;7.878;2023-12-28T13:05:11;1.42;;;0.80;;
68010;SDS011;54794;48.348;7.878;2023-12-28T13:08:28;1.75;;;1.02;;
68010;SDS011;54794;48.348;7.878;2023-12-28T13:16:02;1.42;;;0.75;;
68010;SDS011;54794;48.348;7.878;2023-12-28T13:18:40;1.35;;;0.70;;
68010;SDS011;54794;48.348;7.878;2023-12-28T13:21:31;1.02;;;0.60;;
68010;SDS011;54794;48.348;7.878;2023-12-28T13:38:08;1.85;;;0.80;;
68010;SDS011;54794;48.348;7.878;2023-12-28T13:45:29;2.28;;;0.80;;
68010;SDS011;54794;48.348;7.878;2023-12-28T13:48:04;1.48;;;0.95;;
68010;SDS011;54794;48.348;7.878;2023-12-28T13:54:55;1.00;;;0.70;;
68010;SDS011;54794;48.348;7.878;2023-12-28T13:58:41;1.73;;;0.75;;
68010;SDS011;54794;48.348;7.878;2023-12-28T14:02:22;0.80;;;0.60;;
68010;SDS011;54794;48.348;7.878;2023-12-28T14:04:52;1.67;;;0.70;;
68010;SDS011;54794;48.348;7.878;2023-12-28T14:07:23;1.38;;;0.77;;
68010;SDS011;54794;48.348;7.878;2023-12-28T14:10:10;1.27;;;0.80;;
68010;SDS011;54794;48.348;7.878;2023-12-28T14:19:58;1.10;;;0.60;;
68010;SDS011;54794;48.348;7.878;2023-12-28T14:22:58;1.75;;;0.70;;
68010;SDS011;54794;48.348;7.878;2023-12-28T14:33:57;1.23;;;0.70;;
68010;SDS011;54794;48.348;7.878;2023-12-28T14:40:58;2.33;;;1.13;;
68010;SDS011;54794;48.348;7.878;2023-12-28T14:43:32;2.05;;;1.38;;
68010;SDS011;54794;48.348;7.878;2023-12-28T14:46:30;3.47;;;1.60;;
68010;SDS011;54794;48.348;7.878;2023-12-28T14:49:15;2.67;;;1.83;;
68010;SDS011;54794;48.348;7.878;2023-12-28T14:52:13;2.17;;;1.27;;
68010;SDS011;54794;48.348;7.878;2023-12-28T14:54:40;2.40;;;1.02;;
68010;SDS011;54794;48.348;7.878;2023-12-28T14:57:07;2.00;;;0.95;;
68010;SDS011;54794;48.348;7.878;2023-12-28T15:00:24;1.65;;;0.98;;
68010;SDS011;54794;48.348;7.878;2023-12-28T15:03:28;3.00;;;1.30;;
68010;SDS011;54794;48.348;7.878;2023-12-28T15:06:30;1.80;;;1.05;;
68010;SDS011;54794;48.348;7.878;2023-12-28T15:09:10;2.22;;;1.48;;
68010;SDS011;54794;48.348;7.878;2023-12-28T15:16:03;1.33;;;0.80;;
68010;SDS011;54794;48.348;7.878;2023-12-28T15:36:48;5.70;;;3.30;;
68010;SDS011;54794;48.348;7.878;2023-12-28T15:39:15;6.47;;;3.55;;
68010;SDS011;54794;48.348;7.878;2023-12-28T15:41:41;3.53;;;2.10;;
68010;SDS011;54794;48.348;7.878;2023-12-28T15:58:59;6.85;;;3.38;;
68010;SDS011;54794;48.348;7.878;2023-12-28T16:05:24;5.78;;;3.40;;
68010;SDS011;54794;48.348;7.878;2023-12-28T16:16:56;2.67;;;1.27;;
68010;SDS011;54794;48.348;7.878;2023-12-28T16:56:34;2.22;;;1.48;;
68010;SDS011;54794;48.348;7.878;2023-12-28T19:15:35;1.70;;;0.95;;
68010;SDS011;54794;48.348;7.878;2023-12-28T19:50:32;6.15;;;2.88;;
68010;SDS011;54794;48.348;7.878;2023-12-28T19:54:47;1.73;;;1.05;;
68010;SDS011;54794;48.348;7.878;2023-12-28T22:15:57;1.58;;;0.90;;
68010;SDS011;54794;48.348;7.878;2023-12-28T22:24:03;1.88;;;0.75;;
68010;SDS011;54794;48.348;7.878;2023-12-28T22:26:50;1.55;;;0.80;;
68010;SDS011;54794;48.348;7.878;2023-12-28T22:29:20;1.30;;;0.80;;
68010;SDS011;54794;48.348;7.878;2023-12-28T22:36:57;0.73;;;0.60;;
68010;SDS011;54794;48.348;7.878;2023-12-28T22:47:00;1.17;;;1.08;;
68010;SDS011;54794;48.348;7.878;2023-12-28T22:50:26;1.15;;;0.80;;
68010;SDS011;54794;48.348;7.878;2023-12-28T22:53:30;1.52;;;0.85;;
68010;SDS011;54794;48.348;7.878;2023-12-28T22:56:29;1.42;;;0.70;;
68010;SDS011;54794;48.348;7.878;2023-12-28T23:10:27;1.33;;;0.80;;
68010;SDS011;54794;48.348;7.878;2023-12-28T23:25:35;1.15;;;0.80;;
68010;SDS011;54794;48.348;7.878;2023-12-28T23:30:59;1.23;;;0.80;;
68010;SDS011;54794;48.348;7.878;2023-12-28T23:33:44;1.27;;;0.80;;
68010;SDS011;54794;48.348;7.878;2023-12-28T23:36:11;0.93;;;0.60;;
68010;SDS011;54794;48.348;7.878;2023-12-28T23:42:51;1.33;;;0.80;;
68010;SDS011;54794;48.348;7.878;2023-12-28T23:45:41;1.15;;;0.82;;
68010;SDS011;54794;48.348;7.878;2023-12-28T23:48:34;1.50;;;0.90;;
68010;SDS011;54794;48.348;7.878;2023-12-28T23:51:45;1.33;;;0.85;;
68010;SDS011;54794;48.348;7.878;2023-12-28T23:57:37;2.58;;;0.80;;
